createdAt,value
2019-05-26T00:00:13.870Z,94.84
2019-05-26T00:01:14.828Z,95.42
2019-05-26T00:02:13.728Z,95.15
2019-05-26T00:03:13.829Z,95.31
2019-05-26T00:04:13.709Z,95.46
2019-05-26T00:05:13.820Z,94.95
2019-05-26T00:06:13.680Z,95.97
2019-05-26T00:07:29.488Z,96.18
2019-05-26T00:08:14.654Z,96.28
2019-05-26T00:09:13.745Z,96.08
2019-05-26T00:10:13.671Z,96.59
2019-05-26T00:11:13.675Z,95.67
2019-05-26T00:12:15.822Z,96.28
2019-05-26T00:13:14.634Z,96.18
2019-05-26T00:14:13.604Z,96.08
2019-05-26T00:15:13.695Z,96.33
2019-05-26T00:16:17.626Z,96.33
2019-05-26T00:17:13.567Z,95.92
2019-05-26T00:18:13.667Z,96.53
2019-05-26T00:19:13.537Z,96.43
2019-05-26T00:20:13.628Z,96.33
2019-05-26T00:21:13.508Z,96.73
2019-05-26T00:22:13.500Z,96.84
2019-05-26T00:23:13.498Z,96.33
2019-05-26T00:24:13.560Z,96.73
2019-05-26T00:25:13.485Z,96.43
2019-05-26T00:26:13.491Z,95.71
2019-05-26T00:27:13.461Z,96.22
2019-05-26T00:28:13.533Z,96.53
2019-05-26T00:29:13.434Z,96.22
2019-05-26T00:30:14.543Z,96.33
2019-05-26T00:31:13.415Z,95.86
2019-05-26T00:32:13.414Z,95.96
2019-05-26T00:33:13.386Z,95.96
2019-05-26T00:34:13.436Z,96.37
2019-05-26T00:35:13.371Z,96.47
2019-05-26T00:36:13.380Z,96.78
2019-05-26T00:37:13.328Z,96.89
2019-05-26T00:38:13.319Z,96.47
2019-05-26T00:39:13.313Z,96.27
2019-05-26T00:40:13.389Z,96.06
2019-05-26T00:41:13.289Z,95.96
2019-05-26T00:42:13.397Z,95.75
2019-05-26T00:43:13.272Z,95.86
2019-05-26T00:44:13.262Z,94.98
2019-05-26T00:45:13.343Z,95.28
2019-05-26T00:46:13.244Z,95.24
2019-05-26T00:47:13.333Z,96.06
2019-05-26T00:48:13.213Z,96.47
2019-05-26T00:49:13.195Z,96.17
2019-05-26T00:50:13.268Z,96.11
2019-05-26T00:51:13.175Z,95.59
2019-05-26T00:52:13.268Z,95.96
2019-05-26T00:53:13.156Z,96.06
2019-05-26T00:54:13.137Z,95.96
2019-05-26T00:55:13.127Z,96.21
2019-05-26T00:56:13.178Z,96.21
2019-05-26T00:57:13.109Z,95.90
2019-05-26T00:58:13.179Z,96.62
2019-05-26T00:59:13.100Z,96.11
2019-05-26T01:00:13.115Z,96.42
2019-05-26T01:01:13.091Z,96.15
2019-05-26T01:02:13.151Z,96.15
2019-05-26T01:03:13.053Z,96.36
2019-05-26T01:04:13.082Z,96.52
2019-05-26T01:05:13.026Z,96.77
2019-05-26T01:06:14.084Z,97.08
2019-05-26T01:07:12.994Z,97.08
2019-05-26T01:08:13.078Z,97.08
2019-05-26T01:09:12.979Z,96.88
2019-05-26T01:10:12.966Z,96.77
2019-05-26T01:11:12.966Z,96.97
2019-05-26T01:12:13.028Z,97.03
2019-05-26T01:13:12.927Z,96.72
2019-05-26T01:14:12.960Z,96.97
2019-05-26T01:15:12.939Z,96.93
2019-05-26T01:16:12.919Z,97.28
2019-05-26T01:17:12.972Z,97.49
2019-05-26T01:18:12.880Z,97.08
2019-05-26T01:19:13.930Z,96.97
2019-05-26T01:20:12.861Z,96.88
2019-05-26T01:21:12.892Z,96.97
2019-05-26T01:22:12.834Z,96.88
2019-05-26T01:23:12.903Z,97.08
2019-05-26T01:24:12.805Z,97.08
2019-05-26T01:25:12.806Z,96.92
2019-05-26T01:26:12.797Z,97.02
2019-05-26T01:27:12.845Z,97.13
2019-05-26T01:28:12.756Z,97.13
2019-05-26T01:29:12.806Z,97.02
2019-05-26T01:30:12.737Z,97.02
2019-05-26T01:31:12.737Z,97.43
2019-05-26T01:32:12.788Z,97.02
2019-05-26T01:33:12.698Z,97.13
2019-05-26T01:34:12.729Z,97.23
2019-05-26T01:35:12.700Z,97.33
2019-05-26T01:36:12.691Z,97.13
2019-05-26T01:37:12.671Z,96.50
2019-05-26T01:38:23.211Z,97.13
2019-05-26T01:39:13.642Z,97.13
2019-05-26T01:40:12.737Z,97.02
2019-05-26T01:41:12.622Z,97.33
2019-05-26T01:42:12.671Z,96.92
2019-05-26T01:43:12.594Z,97.53
2019-05-26T01:44:12.605Z,97.74
2019-05-26T01:45:12.565Z,97.33
2019-05-26T01:46:12.586Z,97.43
2019-05-26T01:47:12.546Z,96.92
2019-05-26T01:48:12.578Z,97.68
2019-05-26T01:49:12.520Z,97.43
2019-05-26T01:50:12.619Z,97.48
2019-05-26T01:51:12.518Z,96.96
2019-05-26T01:52:12.500Z,97.06
2019-05-26T01:53:12.519Z,97.27
2019-05-26T01:54:12.470Z,96.66
2019-05-26T01:55:12.550Z,96.66
2019-05-26T01:56:12.496Z,96.66
2019-05-26T01:57:12.431Z,96.86
2019-05-26T01:58:12.422Z,97.01
2019-05-26T01:59:12.526Z,96.49
2019-05-26T02:00:12.394Z,96.84
2019-05-26T02:01:12.466Z,97.01
2019-05-26T02:02:12.385Z,97.31
2019-05-26T02:03:13.424Z,97.11
2019-05-26T02:04:12.365Z,97.01
2019-05-26T02:05:12.437Z,97.21
2019-05-26T02:06:12.337Z,97.21
2019-05-26T02:07:12.427Z,96.91
2019-05-26T02:08:12.453Z,97.31
2019-05-26T02:09:12.408Z,97.42
2019-05-26T02:10:12.299Z,97.26
2019-05-26T02:11:12.339Z,97.36
2019-05-26T02:12:12.280Z,97.26
2019-05-26T02:13:12.250Z,97.26
2019-05-26T02:14:14.606Z,97.05
2019-05-26T02:15:12.232Z,97.26
2019-05-26T02:16:12.282Z,97.05
2019-05-26T02:17:12.223Z,97.16
2019-05-26T02:18:12.193Z,97.41
2019-05-26T02:19:12.293Z,97.67
2019-05-26T02:20:12.174Z,97.77
2019-05-26T02:21:14.788Z,98.19
2019-05-26T02:22:12.178Z,98.50
2019-05-26T02:23:12.146Z,98.50
2019-05-26T02:24:12.136Z,98.60
2019-05-26T02:25:13.228Z,98.19
2019-05-26T02:26:12.118Z,98.39
2019-05-26T02:27:13.207Z,98.50
2019-05-26T02:28:12.090Z,98.70
2019-05-26T02:29:12.069Z,98.65
2019-05-26T02:30:12.147Z,97.61
2019-05-26T02:31:12.050Z,98.29
2019-05-26T02:32:12.111Z,97.41
2019-05-26T02:33:12.025Z,98.23
2019-05-26T02:34:12.022Z,97.77
2019-05-26T02:35:12.004Z,97.88
2019-05-26T02:36:12.060Z,98.08
2019-05-26T02:37:11.994Z,98.60
2019-05-26T02:38:12.085Z,98.70
2019-05-26T02:39:12.054Z,98.50
2019-05-26T02:40:11.963Z,98.50
2019-05-26T02:41:11.986Z,98.65
2019-05-26T02:42:11.947Z,98.65
2019-05-26T02:43:12.029Z,98.23
2019-05-26T02:44:11.899Z,98.65
2019-05-26T02:45:11.979Z,98.54
2019-05-26T02:46:11.879Z,98.33
2019-05-26T02:47:11.942Z,99.06
2019-05-26T02:48:11.860Z,98.85
2019-05-26T02:49:11.929Z,98.85
2019-05-26T02:50:11.831Z,98.96
2019-05-26T02:51:11.862Z,98.80
2019-05-26T02:52:11.832Z,98.75
2019-05-26T02:53:11.901Z,98.65
2019-05-26T02:54:11.793Z,98.91
2019-05-26T02:55:11.793Z,98.65
2019-05-26T02:56:11.814Z,99.01
2019-05-26T02:57:11.806Z,98.50
2019-05-26T02:58:11.850Z,98.65
2019-05-26T02:59:11.746Z,98.39
2019-05-26T03:00:11.737Z,98.60
2019-05-26T03:01:11.746Z,98.60
2019-05-26T03:02:11.697Z,98.75
2019-05-26T03:03:11.754Z,98.70
2019-05-26T03:04:11.678Z,98.29
2019-05-26T03:05:11.670Z,99.01
2019-05-26T03:06:11.738Z,99.22
2019-05-26T03:07:11.759Z,99.01
2019-05-26T03:08:11.649Z,98.08
2019-05-26T03:09:22.948Z,98.60
2019-05-26T03:10:12.612Z,97.56
2019-05-26T03:11:11.635Z,98.19
2019-05-26T03:12:11.595Z,97.88
2019-05-26T03:13:11.612Z,97.72
2019-05-26T03:14:11.575Z,97.56
2019-05-26T03:15:11.604Z,97.98
2019-05-26T03:16:11.557Z,97.56
2019-05-26T03:17:11.644Z,97.67
2019-05-26T03:18:11.536Z,97.72
2019-05-26T03:19:11.577Z,97.77
2019-05-26T03:20:11.500Z,97.67
2019-05-26T03:21:11.487Z,97.98
2019-05-26T03:22:11.478Z,97.67
2019-05-26T03:23:12.508Z,98.08
2019-05-26T03:24:11.448Z,98.19
2019-05-26T03:25:11.485Z,98.13
2019-05-26T03:26:11.451Z,98.23
2019-05-26T03:27:11.426Z,97.92
2019-05-26T03:28:12.463Z,98.02
2019-05-26T03:29:11.411Z,98.23
2019-05-26T03:30:11.424Z,98.13
2019-05-26T03:31:11.493Z,97.51
2019-05-26T03:32:11.378Z,98.23
2019-05-26T03:33:12.404Z,98.23
2019-05-26T03:34:11.357Z,98.23
2019-05-26T03:35:12.421Z,98.13
2019-05-26T03:36:11.315Z,98.02
2019-05-26T03:37:11.306Z,97.82
2019-05-26T03:38:11.479Z,97.51
2019-05-26T03:39:11.287Z,97.30
2019-05-26T03:40:11.297Z,98.18
2019-05-26T03:41:11.257Z,97.76
2019-05-26T03:42:11.256Z,97.97
2019-05-26T03:43:11.349Z,97.97
2019-05-26T03:44:11.231Z,97.41
2019-05-26T03:45:11.239Z,97.66
2019-05-26T03:46:11.211Z,98.18
2019-05-26T03:47:16.273Z,97.66
2019-05-26T03:48:12.224Z,98.23
2019-05-26T03:49:11.185Z,98.02
2019-05-26T03:50:11.189Z,98.23
2019-05-26T03:51:11.164Z,97.92
2019-05-26T03:52:11.134Z,97.82
2019-05-26T03:53:11.154Z,98.23
2019-05-26T03:54:11.155Z,97.61
2019-05-26T03:55:11.104Z,97.61
2019-05-26T03:56:11.186Z,98.13
2019-05-26T03:57:11.077Z,98.33
2019-05-26T03:58:11.126Z,98.13
2019-05-26T03:59:11.078Z,98.13
2019-05-26T04:00:11.167Z,98.13
2019-05-26T04:01:11.039Z,97.61
2019-05-26T04:02:11.099Z,97.20
2019-05-26T04:03:11.020Z,97.41
2019-05-26T04:04:11.094Z,97.51
2019-05-26T04:05:11.006Z,97.30
2019-05-26T04:06:11.083Z,97.20
2019-05-26T04:07:10.984Z,97.09
2019-05-26T04:08:11.011Z,97.20
2019-05-26T04:09:10.975Z,97.30
2019-05-26T04:10:11.047Z,97.30
2019-05-26T04:11:10.928Z,97.61
2019-05-26T04:12:10.975Z,97.61
2019-05-26T04:13:10.896Z,97.20
2019-05-26T04:14:10.956Z,97.20
2019-05-26T04:15:10.875Z,97.16
2019-05-26T04:16:10.957Z,97.47
2019-05-26T04:17:10.857Z,96.95
2019-05-26T04:18:10.846Z,96.99
2019-05-26T04:19:11.929Z,97.26
2019-05-26T04:20:10.829Z,97.05
2019-05-26T04:21:10.899Z,97.05
2019-05-26T04:22:10.811Z,96.95
2019-05-26T04:23:10.800Z,96.95
2019-05-26T04:24:10.800Z,97.26
2019-05-26T04:25:10.871Z,97.16
2019-05-26T04:26:10.762Z,96.64
2019-05-26T04:27:10.802Z,96.74
2019-05-26T04:28:10.735Z,96.64
2019-05-26T04:29:10.753Z,96.84
2019-05-26T04:30:10.803Z,97.16
2019-05-26T04:31:10.693Z,96.74
2019-05-26T04:32:10.745Z,96.84
2019-05-26T04:33:10.676Z,96.74
2019-05-26T04:34:10.667Z,96.44
2019-05-26T04:35:10.666Z,96.49
2019-05-26T04:36:10.717Z,96.49
2019-05-26T04:37:10.639Z,96.49
2019-05-26T04:38:10.648Z,96.18
2019-05-26T04:39:10.620Z,96.70
2019-05-26T04:40:25.595Z,96.18
2019-05-26T04:41:11.590Z,96.08
2019-05-26T04:42:10.630Z,96.70
2019-05-26T04:43:14.686Z,96.18
2019-05-26T04:44:10.650Z,96.28
2019-05-26T04:45:10.552Z,96.59
2019-05-26T04:46:10.592Z,97.01
2019-05-26T04:47:10.513Z,97.31
2019-05-26T04:48:10.533Z,96.80
2019-05-26T04:49:10.487Z,97.01
2019-05-26T04:50:10.494Z,97.06
2019-05-26T04:51:10.464Z,96.75
2019-05-26T04:52:10.506Z,96.75
2019-05-26T04:53:10.465Z,96.96
2019-05-26T04:54:12.487Z,95.93
2019-05-26T04:55:10.465Z,96.24
2019-05-26T04:56:10.425Z,96.96
2019-05-26T04:57:11.468Z,96.75
2019-05-26T04:58:10.399Z,96.75
2019-05-26T04:59:10.479Z,96.75
2019-05-26T05:00:10.400Z,96.61
2019-05-26T05:01:10.410Z,96.09
2019-05-26T05:02:10.340Z,95.78
2019-05-26T05:03:10.351Z,95.48
2019-05-26T05:04:10.316Z,95.27
2019-05-26T05:05:10.473Z,94.76
2019-05-26T05:06:10.298Z,94.96
2019-05-26T05:07:10.325Z,94.76
2019-05-26T05:08:10.264Z,94.85
2019-05-26T05:09:10.364Z,94.85
2019-05-26T05:10:10.254Z,94.81
2019-05-26T05:11:10.245Z,95.12
2019-05-26T05:12:10.266Z,93.95
2019-05-26T05:13:10.216Z,95.12
2019-05-26T05:14:11.228Z,94.71
2019-05-26T05:15:10.206Z,94.77
2019-05-26T05:16:10.190Z,94.67
2019-05-26T05:17:10.158Z,94.77
2019-05-26T05:18:10.168Z,94.67
2019-05-26T05:19:10.139Z,94.67
2019-05-26T05:20:10.260Z,94.52
2019-05-26T05:21:10.120Z,94.62
2019-05-26T05:22:10.145Z,93.80
2019-05-26T05:23:10.092Z,93.80
2019-05-26T05:24:10.182Z,93.74
2019-05-26T05:25:15.057Z,92.87
2019-05-26T05:26:11.147Z,92.05
2019-05-26T05:27:10.056Z,92.40
2019-05-26T05:28:10.053Z,92.36
2019-05-26T05:29:10.037Z,92.40
2019-05-26T05:30:10.145Z,92.77
2019-05-26T05:31:10.006Z,93.23
2019-05-26T05:32:09.990Z,94.01
2019-05-26T05:33:09.976Z,92.97
2019-05-26T05:34:10.112Z,93.14
2019-05-26T05:35:09.980Z,93.86
2019-05-26T05:36:10.002Z,93.24
2019-05-26T05:37:09.955Z,92.93
2019-05-26T05:38:09.920Z,92.73
2019-05-26T05:39:09.999Z,92.99
2019-05-26T05:40:09.915Z,91.76
2019-05-26T05:41:09.940Z,92.07
2019-05-26T05:42:09.871Z,91.97
2019-05-26T05:43:09.982Z,91.97
2019-05-26T05:44:09.876Z,92.07
2019-05-26T05:45:09.965Z,91.55
2019-05-26T05:46:09.834Z,92.03
2019-05-26T05:47:09.856Z,92.64
2019-05-26T05:48:09.817Z,92.03
2019-05-26T05:49:09.887Z,92.54
2019-05-26T05:50:09.795Z,92.29
2019-05-26T05:51:09.866Z,92.60
2019-05-26T05:52:09.757Z,92.86
2019-05-26T05:53:09.748Z,92.97
2019-05-26T05:54:09.829Z,93.13
2019-05-26T05:55:09.720Z,92.51
2019-05-26T05:56:09.830Z,92.68
2019-05-26T05:57:09.699Z,91.69
2019-05-26T05:58:09.706Z,89.28
2019-05-26T05:59:09.693Z,85.37
2019-05-26T06:00:09.738Z,80.94
2019-05-26T06:01:09.681Z,75.62
2019-05-26T06:02:09.673Z,72.95
2019-05-26T06:03:09.742Z,68.71
2019-05-26T06:04:09.623Z,65.28
2019-05-26T06:05:09.676Z,64.41
2019-05-26T06:06:09.624Z,62.51
2019-05-26T06:07:09.604Z,60.84
2019-05-26T06:08:09.577Z,58.77
2019-05-26T06:09:09.654Z,57.41
2019-05-26T06:10:09.546Z,55.58
2019-05-26T06:11:16.722Z,55.35
2019-05-26T06:12:10.527Z,53.69
2019-05-26T06:13:09.617Z,53.37
2019-05-26T06:14:09.510Z,51.04
2019-05-26T06:15:09.558Z,51.52
2019-05-26T06:16:09.510Z,50.89
2019-05-26T06:17:10.517Z,50.95
2019-05-26T06:18:09.477Z,50.04
2019-05-26T06:19:09.462Z,48.90
2019-05-26T06:20:09.458Z,48.18
2019-05-26T06:21:09.515Z,47.63
2019-05-26T06:22:09.415Z,48.01
2019-05-26T06:23:09.495Z,46.22
2019-05-26T06:24:09.465Z,47.41
2019-05-26T06:25:09.392Z,46.59
2019-05-26T06:26:09.457Z,46.37
2019-05-26T06:27:09.356Z,44.78
2019-05-26T06:28:09.441Z,45.36
2019-05-26T06:29:09.409Z,45.06
2019-05-26T06:30:09.331Z,44.06
2019-05-26T06:31:10.418Z,44.54
2019-05-26T06:32:09.676Z,44.81
2019-05-26T06:33:09.388Z,44.00
2019-05-26T06:34:09.291Z,43.30
2019-05-26T06:35:09.320Z,42.79
2019-05-26T06:36:09.271Z,42.74
2019-05-26T06:37:09.354Z,41.95
2019-05-26T06:38:09.233Z,41.83
2019-05-26T06:39:09.283Z,41.49
2019-05-26T06:40:09.270Z,40.11
2019-05-26T06:41:09.265Z,40.41
2019-05-26T06:42:12.793Z,40.90
2019-05-26T06:43:09.266Z,40.39
2019-05-26T06:44:09.176Z,40.17
2019-05-26T06:45:09.178Z,39.65
2019-05-26T06:46:09.218Z,39.64
2019-05-26T06:47:09.141Z,39.50
2019-05-26T06:48:09.212Z,39.70
2019-05-26T06:49:09.120Z,39.20
2019-05-26T06:50:09.114Z,38.12
2019-05-26T06:51:09.110Z,39.91
2019-05-26T06:52:09.171Z,39.03
2019-05-26T06:53:09.072Z,39.52
2019-05-26T06:54:10.132Z,39.79
2019-05-26T06:55:09.075Z,37.41
2019-05-26T06:56:09.043Z,36.88
2019-05-26T06:57:09.115Z,37.87
2019-05-26T06:58:09.006Z,37.26
2019-05-26T06:59:09.056Z,36.84
2019-05-26T07:00:08.986Z,36.02
2019-05-26T07:01:09.038Z,36.69
2019-05-26T07:02:08.987Z,36.79
2019-05-26T07:03:10.048Z,36.57
2019-05-26T07:04:08.950Z,35.88
2019-05-26T07:05:08.960Z,35.59
2019-05-26T07:06:08.920Z,34.80
2019-05-26T07:07:08.953Z,33.80
2019-05-26T07:08:08.901Z,34.30
2019-05-26T07:09:08.932Z,33.69
2019-05-26T07:10:08.884Z,33.38
2019-05-26T07:11:08.863Z,33.85
2019-05-26T07:12:08.865Z,33.17
2019-05-26T07:13:08.904Z,33.75
2019-05-26T07:14:08.845Z,34.75
2019-05-26T07:15:08.848Z,34.77
2019-05-26T07:16:08.917Z,32.92
2019-05-26T07:17:08.827Z,34.20
2019-05-26T07:18:08.849Z,32.72
2019-05-26T07:19:08.789Z,33.31
2019-05-26T07:20:08.780Z,32.81
2019-05-26T07:21:08.749Z,31.50
2019-05-26T07:22:09.782Z,31.51
2019-05-26T07:23:09.201Z,32.90
2019-05-26T07:24:08.751Z,32.12
2019-05-26T07:25:08.717Z,32.26
2019-05-26T07:26:09.713Z,34.56
2019-05-26T07:27:08.694Z,34.36
2019-05-26T07:28:08.735Z,34.56
2019-05-26T07:29:08.675Z,33.97
2019-05-26T07:30:08.775Z,33.61
2019-05-26T07:31:08.646Z,34.81
2019-05-26T07:32:08.656Z,34.31
2019-05-26T07:33:08.658Z,33.80
2019-05-26T07:34:08.608Z,32.31
2019-05-26T07:35:08.699Z,33.08
2019-05-26T07:36:09.611Z,32.32
2019-05-26T07:37:08.591Z,32.89
2019-05-26T07:38:08.561Z,31.39
2019-05-26T07:39:08.779Z,31.51
2019-05-26T07:40:08.553Z,30.88
2019-05-26T07:41:08.625Z,31.13
2019-05-26T07:42:11.158Z,28.97
2019-05-26T07:43:08.516Z,31.63
2019-05-26T07:44:08.549Z,34.95
2019-05-26T07:45:08.498Z,31.88
2019-05-26T07:46:09.587Z,30.79
2019-05-26T07:47:08.478Z,30.10
2019-05-26T07:48:08.488Z,30.54
2019-05-26T07:49:08.439Z,32.00
2019-05-26T07:50:08.533Z,31.48
2019-05-26T07:51:08.417Z,32.14
2019-05-26T07:52:08.510Z,32.64
2019-05-26T07:53:08.436Z,30.35
2019-05-26T07:54:22.722Z,29.44
2019-05-26T07:55:09.373Z,31.56
2019-05-26T07:56:10.394Z,36.31
2019-05-26T07:57:08.395Z,35.43
2019-05-26T07:58:09.005Z,34.00
2019-05-26T07:59:08.336Z,31.49
2019-05-26T08:00:08.409Z,32.61
2019-05-26T08:01:08.306Z,29.13
2019-05-26T08:02:08.367Z,30.50
2019-05-26T08:03:08.298Z,28.63
2019-05-26T08:04:08.279Z,27.42
2019-05-26T08:05:08.271Z,28.82
2019-05-26T08:06:08.341Z,29.49
2019-05-26T08:07:08.242Z,27.94
2019-05-26T08:08:13.164Z,27.63
2019-05-26T08:09:09.223Z,27.20
2019-05-26T08:10:08.294Z,30.30
2019-05-26T08:11:08.204Z,30.74
2019-05-26T08:12:09.624Z,30.55
2019-05-26T08:13:09.186Z,29.55
2019-05-26T08:14:08.266Z,28.77
2019-05-26T08:15:08.150Z,29.39
2019-05-26T08:16:09.228Z,29.02
2019-05-26T08:17:08.129Z,29.59
2019-05-26T08:18:08.181Z,28.79
2019-05-26T08:19:08.111Z,29.16
2019-05-26T08:20:08.104Z,28.37
2019-05-26T08:21:08.092Z,28.26
2019-05-26T08:22:08.112Z,27.84
2019-05-26T08:23:08.082Z,27.42
2019-05-26T08:24:08.159Z,26.96
2019-05-26T08:25:08.054Z,27.45
2019-05-26T08:26:08.024Z,27.25
2019-05-26T08:27:08.025Z,28.01
2019-05-26T08:28:08.066Z,28.00
2019-05-26T08:29:07.996Z,28.02
2019-05-26T08:30:08.073Z,27.40
2019-05-26T08:31:08.049Z,27.61
2019-05-26T08:32:07.958Z,26.98
2019-05-26T08:33:08.000Z,26.87
2019-05-26T08:34:07.950Z,26.27
2019-05-26T08:35:08.002Z,25.56
2019-05-26T08:36:07.931Z,27.77
2019-05-26T08:37:07.912Z,26.27
2019-05-26T08:38:07.929Z,26.90
2019-05-26T08:39:08.997Z,24.17
2019-05-26T08:40:07.878Z,25.82
2019-05-26T08:41:07.906Z,25.67
2019-05-26T08:42:07.875Z,27.33
2019-05-26T08:43:07.856Z,26.42
2019-05-26T08:44:07.918Z,27.38
2019-05-26T08:45:07.820Z,30.14
2019-05-26T08:46:07.848Z,32.64
2019-05-26T08:47:07.799Z,29.79
2019-05-26T08:48:07.790Z,30.00
2019-05-26T08:49:07.861Z,30.59
2019-05-26T08:50:07.772Z,31.46
2019-05-26T08:51:07.802Z,29.76
2019-05-26T08:52:07.742Z,28.06
2019-05-26T08:53:07.744Z,30.22
2019-05-26T08:54:07.714Z,28.74
2019-05-26T08:55:08.804Z,29.83
2019-05-26T08:56:07.696Z,28.41
2019-05-26T08:57:07.796Z,28.34
2019-05-26T08:58:07.686Z,28.93
2019-05-26T08:59:07.678Z,31.47
2019-05-26T09:00:07.709Z,27.53
2019-05-26T09:01:07.656Z,27.42
2019-05-26T09:02:07.749Z,32.55
2019-05-26T09:03:07.641Z,26.77
2019-05-26T09:04:07.622Z,26.10
2019-05-26T09:05:07.612Z,27.59
2019-05-26T09:06:07.614Z,27.61
2019-05-26T09:07:07.573Z,27.63
2019-05-26T09:08:08.371Z,29.03
2019-05-26T09:09:07.554Z,30.27
2019-05-26T09:10:07.547Z,27.84
2019-05-26T09:11:07.566Z,27.25
2019-05-26T09:12:07.516Z,28.39
2019-05-26T09:13:07.596Z,27.20
2019-05-26T09:14:07.517Z,25.23
2019-05-26T09:15:07.498Z,25.22
2019-05-26T09:16:07.494Z,26.72
2019-05-26T09:17:07.570Z,26.15
2019-05-26T09:18:07.460Z,26.72
2019-05-26T09:19:07.546Z,25.00
2019-05-26T09:20:10.893Z,27.48
2019-05-26T09:21:07.423Z,23.54
2019-05-26T09:22:07.504Z,25.62
2019-05-26T09:23:07.394Z,24.49
2019-05-26T09:24:07.485Z,25.61
2019-05-26T09:25:07.349Z,26.14
2019-05-26T09:26:07.378Z,27.08
2019-05-26T09:27:09.396Z,26.79
2019-05-26T09:28:07.349Z,26.01
2019-05-26T09:29:07.437Z,26.14
2019-05-26T09:30:07.330Z,26.14
2019-05-26T09:31:07.322Z,26.40
2019-05-26T09:32:07.301Z,27.80
2019-05-26T09:33:07.370Z,29.07
2019-05-26T09:34:07.291Z,30.03
2019-05-26T09:35:08.320Z,32.15
2019-05-26T09:36:07.253Z,36.50
2019-05-26T09:37:07.244Z,37.30
2019-05-26T09:38:07.295Z,38.82
2019-05-26T09:39:07.246Z,35.71
2019-05-26T09:40:07.237Z,34.27
2019-05-26T09:41:07.208Z,33.64
2019-05-26T09:42:07.222Z,33.95
2019-05-26T09:43:15.639Z,34.45
2019-05-26T09:44:08.203Z,35.32
2019-05-26T09:45:07.183Z,35.34
2019-05-26T09:46:07.139Z,36.57
2019-05-26T09:47:07.218Z,37.15
2019-05-26T09:48:07.181Z,39.98
2019-05-26T09:49:07.142Z,38.73
2019-05-26T09:50:07.213Z,36.65
2019-05-26T09:51:07.084Z,36.94
2019-05-26T09:52:07.165Z,37.66
2019-05-26T09:53:07.075Z,37.46
2019-05-26T09:54:07.145Z,36.87
2019-05-26T09:55:07.061Z,38.77
2019-05-26T09:56:07.130Z,38.97
2019-05-26T09:57:07.029Z,40.60
2019-05-26T09:58:07.071Z,37.32
2019-05-26T09:59:07.070Z,37.24
2019-05-26T10:00:06.989Z,36.49
2019-05-26T10:01:07.070Z,37.70
2019-05-26T10:02:06.972Z,38.81
2019-05-26T10:03:07.004Z,39.61
2019-05-26T10:04:06.953Z,38.51
2019-05-26T10:05:07.047Z,37.02
2019-05-26T10:06:06.934Z,39.84
2019-05-26T10:07:10.756Z,41.85
2019-05-26T10:08:07.906Z,39.76
2019-05-26T10:09:06.982Z,40.68
2019-05-26T10:10:06.987Z,39.58
2019-05-26T10:11:06.868Z,39.95
2019-05-26T10:12:06.939Z,40.97
2019-05-26T10:13:06.838Z,40.17
2019-05-26T10:14:06.890Z,42.32
2019-05-26T10:15:06.819Z,42.60
2019-05-26T10:16:07.912Z,44.39
2019-05-26T10:17:06.802Z,44.20
2019-05-26T10:18:06.832Z,45.25
2019-05-26T10:19:06.793Z,43.07
2019-05-26T10:20:06.866Z,42.18
2019-05-26T10:21:06.834Z,43.19
2019-05-26T10:22:06.755Z,42.97
2019-05-26T10:23:13.736Z,44.27
2019-05-26T10:24:06.741Z,43.55
2019-05-26T10:25:06.807Z,42.07
2019-05-26T10:26:06.697Z,42.87
2019-05-26T10:27:06.739Z,42.99
2019-05-26T10:28:06.679Z,43.79
2019-05-26T10:29:06.719Z,44.89
2019-05-26T10:30:06.650Z,43.09
2019-05-26T10:31:06.711Z,44.70
2019-05-26T10:32:06.645Z,46.59
2019-05-26T10:33:06.653Z,42.76
2019-05-26T10:34:06.633Z,42.95
2019-05-26T10:35:07.714Z,42.93
2019-05-26T10:36:06.622Z,42.33
2019-05-26T10:37:06.577Z,41.63
2019-05-26T10:38:06.577Z,41.63
2019-05-26T10:39:06.616Z,42.43
2019-05-26T10:40:06.547Z,44.61
2019-05-26T10:41:06.607Z,40.32
2019-05-26T10:42:06.519Z,41.91
2019-05-26T10:43:06.509Z,42.10
2019-05-26T10:44:06.520Z,41.60
2019-05-26T10:45:06.623Z,42.69
2019-05-26T10:46:06.492Z,42.89
2019-05-26T10:47:06.512Z,40.89
2019-05-26T10:48:06.472Z,42.11
2019-05-26T10:49:06.545Z,43.13
2019-05-26T10:50:06.454Z,44.23
2019-05-26T10:51:07.504Z,42.55
2019-05-26T10:52:06.415Z,44.15
2019-05-26T10:53:06.406Z,45.45
2019-05-26T10:54:06.388Z,47.13
2019-05-26T10:55:06.497Z,43.71
2019-05-26T10:56:06.371Z,43.21
2019-05-26T10:57:06.391Z,41.93
2019-05-26T10:58:06.360Z,43.15
2019-05-26T10:59:06.341Z,42.73
2019-05-26T11:00:06.353Z,42.90
2019-05-26T11:01:06.362Z,45.27
2019-05-26T11:02:06.312Z,44.97
2019-05-26T11:03:06.404Z,44.67
2019-05-26T11:04:06.283Z,46.45
2019-05-26T11:05:06.275Z,47.05
2019-05-26T11:06:06.308Z,42.77
2019-05-26T11:07:06.256Z,42.29
2019-05-26T11:08:06.327Z,42.99
2019-05-26T11:09:06.227Z,44.29
2019-05-26T11:10:06.227Z,45.39
2019-05-26T11:11:06.345Z,45.77
2019-05-26T11:12:06.209Z,44.09
2019-05-26T11:13:06.189Z,44.29
2019-05-26T11:14:06.240Z,47.17
2019-05-26T11:15:06.181Z,44.35
2019-05-26T11:16:06.152Z,46.35
2019-05-26T11:17:06.313Z,46.97
2019-05-26T11:18:06.123Z,44.47
2019-05-26T11:19:06.184Z,43.25
2019-05-26T11:20:06.144Z,43.65
2019-05-26T11:21:06.088Z,44.15
2019-05-26T11:22:06.076Z,42.43
2019-05-26T11:23:07.186Z,43.33
2019-05-26T11:24:06.060Z,43.83
2019-05-26T11:25:06.139Z,45.33
2019-05-26T11:26:06.049Z,44.15
2019-05-26T11:27:10.820Z,43.18
2019-05-26T11:28:07.129Z,43.67
2019-05-26T11:29:06.011Z,42.68
2019-05-26T11:30:06.081Z,43.05
2019-05-26T11:31:05.991Z,44.35
2019-05-26T11:32:06.298Z,46.85
2019-05-26T11:33:05.944Z,44.55
2019-05-26T11:34:06.014Z,42.76
2019-05-26T11:35:05.948Z,44.03
2019-05-26T11:36:05.948Z,43.65
2019-05-26T11:37:05.917Z,44.35
2019-05-26T11:38:05.926Z,46.15
2019-05-26T11:39:05.958Z,43.83
2019-05-26T11:40:05.930Z,44.13
2019-05-26T11:41:05.891Z,47.10
2019-05-26T11:42:13.234Z,43.93
2019-05-26T11:43:16.317Z,43.45
2019-05-26T11:44:17.459Z,43.95
2019-05-26T11:45:06.872Z,43.59
2019-05-26T11:46:05.835Z,45.00
2019-05-26T11:47:05.804Z,45.50
2019-05-26T11:48:05.864Z,45.79
2019-05-26T11:49:05.775Z,46.50
2019-05-26T11:50:05.874Z,45.59
2019-05-26T11:51:05.776Z,47.07
2019-05-26T11:52:06.016Z,44.89
2019-05-26T11:53:05.747Z,44.09
2019-05-26T11:54:05.740Z,44.49
2019-05-26T11:55:05.722Z,44.70
2019-05-26T11:56:05.769Z,44.67
2019-05-26T11:57:05.690Z,44.85
2019-05-26T11:58:05.750Z,46.55
2019-05-26T11:59:05.673Z,45.25
2019-05-26T12:00:05.795Z,45.45
2019-05-26T12:01:05.673Z,43.98
2019-05-26T12:02:05.725Z,44.20
2019-05-26T12:03:05.624Z,44.79
2019-05-26T12:04:05.654Z,44.57
2019-05-26T12:05:05.617Z,45.27
2019-05-26T12:06:05.646Z,45.35
2019-05-26T12:07:05.587Z,45.25
2019-05-26T12:08:05.638Z,44.85
2019-05-26T12:09:05.569Z,44.93
2019-05-26T12:10:05.560Z,45.81
2019-05-26T12:11:05.595Z,45.40
2019-05-26T12:12:05.521Z,44.19
2019-05-26T12:13:05.582Z,42.49
2019-05-26T12:14:05.503Z,43.31
2019-05-26T12:15:05.804Z,42.61
2019-05-26T12:16:05.499Z,43.51
2019-05-26T12:17:05.555Z,42.93
2019-05-26T12:18:05.454Z,45.71
2019-05-26T12:19:05.485Z,42.91
2019-05-26T12:20:05.778Z,43.93
2019-05-26T12:21:05.448Z,45.33
2019-05-26T12:22:05.497Z,43.31
2019-05-26T12:23:05.401Z,46.43
2019-05-26T12:24:05.418Z,44.05
2019-05-26T12:25:05.380Z,44.15
2019-05-26T12:26:05.380Z,47.42
2019-05-26T12:27:05.431Z,44.61
2019-05-26T12:28:05.351Z,43.01
2019-05-26T12:29:05.372Z,42.91
2019-05-26T12:30:05.323Z,44.31
2019-05-26T12:31:05.332Z,42.32
2019-05-26T12:32:05.293Z,41.31
2019-05-26T12:33:05.346Z,41.80
2019-05-26T12:34:05.295Z,42.99
2019-05-26T12:35:06.305Z,42.89
2019-05-26T12:36:05.286Z,42.69
2019-05-26T12:37:05.307Z,42.67
2019-05-26T12:38:05.249Z,42.47
2019-05-26T12:39:05.250Z,43.75
2019-05-26T12:40:05.219Z,41.28
2019-05-26T12:41:05.330Z,42.37
2019-05-26T12:42:05.192Z,42.67
2019-05-26T12:43:05.171Z,42.87
2019-05-26T12:44:05.171Z,42.89
2019-05-26T12:45:06.182Z,42.89
2019-05-26T12:46:05.174Z,43.09
2019-05-26T12:47:05.481Z,43.41
2019-05-26T12:48:05.135Z,44.41
2019-05-26T12:49:05.125Z,45.10
2019-05-26T12:50:05.109Z,45.48
2019-05-26T12:51:05.132Z,44.69
2019-05-26T12:52:05.085Z,43.71